Time;durP1;ratioP1;P1;durP2;ratioP2;P2;SDS_P1;SDS_P2;PMS_P1;PMS_P2;Temp;Humidity;BMP_temperature;BMP_pressure;BME280_temperature;BME280_humidity;BME280_pressure;Samples;Min_cycle;Max_cycle;Signal;HPM_P1;HPM_P2
2023/09/29 04:10:36;;;;;;;18.52;10.90;;;;;;;15.67;85.98;101123.16;5606577;31;77183;-58
2023/09/29 04:13:41;;;;;;;13.55;10.05;;;;;;;15.67;85.98;101123.16;5594081;31;33429;-57
2023/09/29 04:16:43;;;;;;;13.50;10.35;;;;;;;15.19;88.36;101130.66;5601799;31;34257;-57
2023/09/29 04:19:46;;;;;;;13.90;10.57;;;;;;;15.20;88.51;101126.88;5603249;31;34326;-55
2023/09/29 04:22:48;;;;;;;15.98;10.13;;;;;;;15.16;89.25;101125.81;5601905;31;33645;-54
2023/09/29 04:25:50;;;;;;;14.15;10.75;;;;;;;15.04;86.11;101132.47;5602851;31;34259;-55
2023/09/29 04:28:53;;;;;;;12.43;9.75;;;;;;;14.94;96.95;101129.91;5603025;31;33451;-56
2023/09/29 04:31:55;;;;;;;12.55;9.40;;;;;;;15.02;87.10;101134.66;5595937;31;33858;-55
2023/09/29 04:34:58;;;;;;;18.23;10.38;;;;;;;15.13;93.24;101129.94;5579574;31;34255;-54
2023/09/29 04:38:01;;;;;;;12.43;9.73;;;;;;;15.12;84.91;101131.00;5563564;32;34256;-55
2023/09/29 04:41:06;;;;;;;12.73;9.07;;;;;;;15.28;88.74;101137.00;5563546;32;34234;-55
2023/09/29 04:44:09;;;;;;;15.73;9.50;;;;;;;15.26;90.75;101133.78;5569188;32;33644;-55
2023/09/29 04:47:12;;;;;;;13.27;9.45;;;;;;;15.03;89.06;101144.38;5583005;32;33667;-54
2023/09/29 04:50:14;;;;;;;13.90;9.55;;;;;;;15.17;92.67;101138.25;5583166;31;34386;-54
2023/09/29 04:53:16;;;;;;;15.32;8.95;;;;;;;15.21;93.92;101152.78;5582952;32;34248;-55
2023/09/29 04:56:19;;;;;;;14.52;9.80;;;;;;;15.17;86.04;101147.16;5580315;31;33655;-56
2023/09/29 04:59:21;;;;;;;17.37;10.52;;;;;;;15.11;89.12;101159.13;5582207;31;33670;-55
2023/09/29 05:02:24;;;;;;;12.68;9.52;;;;;;;15.14;90.09;101153.13;5581845;31;33746;-55
2023/09/29 05:05:27;;;;;;;12.32;9.70;;;;;;;15.11;89.25;101148.31;5581706;31;33765;-55
2023/09/29 05:08:31;;;;;;;16.70;9.93;;;;;;;15.14;87.00;101160.44;5582650;31;33537;-54
2023/09/29 05:11:33;;;;;;;14.63;9.55;;;;;;;15.16;85.50;101159.03;5582782;31;33605;-55
2023/09/29 05:14:36;;;;;;;17.83;10.35;;;;;;;14.99;90.66;101158.75;5575590;32;33625;-55
2023/09/29 05:17:38;;;;;;;12.37;9.32;;;;;;;15.18;90.74;101154.16;5573864;31;32239;-55
2023/09/29 05:20:53;;;;;;;16.12;9.63;;;;;;;15.16;89.26;101161.72;5566925;32;34054;-56
2023/09/29 05:23:55;;;;;;;14.00;10.23;;;;;;;15.17;85.31;101162.56;5561502;32;33483;-54
2023/09/29 05:26:58;;;;;;;18.52;10.52;;;;;;;15.20;87.63;101167.38;5559870;32;34385;-55
2023/09/29 05:30:02;;;;;;;22.15;10.57;;;;;;;15.26;95.12;101168.87;5561612;32;33788;-57
2023/09/29 05:33:05;;;;;;;13.50;9.73;;;;;;;15.20;87.43;101165.47;5558111;32;33475;-57
2023/09/29 05:36:07;;;;;;;11.75;10.55;;;;;;;15.24;94.87;101165.69;5558682;32;33581;-57
2023/09/29 05:39:10;;;;;;;15.98;11.10;;;;;;;15.26;87.06;101171.59;5560145;32;33685;-57
2023/09/29 05:42:12;;;;;;;17.77;9.88;;;;;;;15.34;90.52;101164.75;5564293;32;33606;-57
2023/09/29 05:45:15;;;;;;;23.38;11.25;;;;;;;15.46;91.37;101168.63;5559085;32;34355;-57
2023/09/29 05:48:17;;;;;;;14.60;10.52;;;;;;;15.62;90.99;101163.75;5557823;32;34279;-57
2023/09/29 05:51:20;;;;;;;17.85;10.70;;;;;;;15.70;85.48;101165.03;5554616;32;34390;-57
2023/09/29 05:54:22;;;;;;;18.12;10.70;;;;;;;15.79;97.20;101171.34;5564516;32;34386;-57
2023/09/29 05:57:25;;;;;;;30.02;10.73;;;;;;;15.72;87.15;101170.94;5567288;32;33660;-57
2023/09/29 06:00:27;;;;;;;19.25;10.32;;;;;;;15.84;92.50;101173.97;5558303;32;33657;-57
2023/09/29 06:03:30;;;;;;;18.50;11.35;;;;;;;15.85;90.17;101170.16;5554048;32;34380;-57
2023/09/29 06:06:33;;;;;;;19.42;11.48;;;;;;;16.02;95.95;101169.59;5552540;32;33572;-57
2023/09/29 06:09:39;;;;;;;15.52;10.73;;;;;;;16.15;95.56;101178.84;5566061;32;33618;-57
2023/09/29 06:12:41;;;;;;;26.00;12.00;;;;;;;16.19;89.70;101175.28;5557906;32;33623;-57
2023/09/29 06:15:44;;;;;;;19.67;10.35;;;;;;;16.28;86.30;101178.06;5559204;32;33158;-58
2023/09/29 06:18:46;;;;;;;19.77;10.88;;;;;;;16.37;86.53;101179.00;5562271;32;33639;-58
2023/09/29 06:21:49;;;;;;;22.87;11.63;;;;;;;16.49;93.74;101173.09;5559847;32;33703;-57
2023/09/29 06:24:51;;;;;;;18.27;11.75;;;;;;;16.62;85.96;101182.28;5561956;32;33696;-58
2023/09/29 06:27:54;;;;;;;17.80;11.63;;;;;;;16.73;90.97;101183.72;5564004;32;33254;-57
2023/09/29 06:30:57;;;;;;;24.73;11.63;;;;;;;16.79;86.27;101182.53;5563617;32;34702;-58
2023/09/29 06:33:59;;;;;;;23.58;11.20;;;;;;;16.94;87.01;101178.69;5559418;32;34318;-58
2023/09/29 06:37:02;;;;;;;30.10;11.55;;;;;;;17.03;90.78;101176.88;5563558;32;34400;-58
2023/09/29 06:40:06;;;;;;;55.55;14.82;;;;;;;17.16;90.61;101179.87;5553346;32;33504;-57
2023/09/29 06:43:08;;;;;;;26.25;12.25;;;;;;;17.33;89.34;101180.81;5549228;32;33662;-57
2023/09/29 06:46:11;;;;;;;20.85;12.40;;;;;;;17.51;90.91;101191.81;5564103;32;34252;-56
2023/09/29 06:49:13;;;;;;;21.70;11.63;;;;;;;17.58;88.29;101192.16;5560381;32;34422;-57
2023/09/29 06:52:16;;;;;;;41.42;13.02;;;;;;;17.69;86.17;101192.75;5560454;32;33558;-56
2023/09/29 06:55:18;;;;;;;28.73;11.75;;;;;;;17.84;82.23;101184.25;5554382;32;33359;-56
2023/09/29 06:58:21;;;;;;;18.62;11.43;;;;;;;17.99;83.52;101193.94;5564623;32;33550;-56
2023/09/29 07:01:24;;;;;;;21.65;11.05;;;;;;;18.11;88.36;101194.16;5560524;32;33435;-57
2023/09/29 07:04:27;;;;;;;20.25;9.93;;;;;;;18.22;84.20;101192.78;5558944;32;33704;-56
2023/09/29 07:07:29;;;;;;;20.92;9.68;;;;;;;18.40;81.70;101198.28;5559085;32;33902;-57
2023/09/29 07:10:32;;;;;;;17.35;10.35;;;;;;;18.57;82.84;101206.50;5562153;32;32270;-56
2023/09/29 07:13:34;;;;;;;14.60;9.30;;;;;;;18.65;78.30;101213.09;5565365;32;33652;-57
2023/09/29 07:16:38;;;;;;;12.48;9.32;;;;;;;18.83;73.19;101209.34;5559925;32;34264;-56
2023/09/29 07:19:41;;;;;;;13.23;8.10;;;;;;;18.90;73.02;101208.88;5552353;32;33699;-56
2023/09/29 07:22:50;;;;;;;12.02;8.00;;;;;;;19.02;75.80;101211.78;5564220;32;33179;-57
2023/09/29 07:25:54;;;;;;;14.68;8.63;;;;;;;19.08;73.03;101213.25;5560422;32;33605;-56
2023/09/29 07:29:01;;;;;;;13.45;8.65;;;;;;;19.11;71.90;101219.97;5552491;32;33868;-57
2023/09/29 07:32:04;;;;;;;13.75;9.40;;;;;;;19.32;75.34;101215.50;5557296;32;33683;-56
2023/09/29 07:35:07;;;;;;;13.80;8.32;;;;;;;19.43;73.26;101210.53;5554190;32;33866;-56
2023/09/29 07:38:10;;;;;;;22.10;8.80;;;;;;;19.51;69.99;101217.13;5565590;32;33621;-57
2023/09/29 07:41:12;;;;;;;13.85;9.02;;;;;;;19.47;70.01;101214.25;5558231;32;34016;-57
2023/09/29 07:44:15;;;;;;;12.30;8.18;;;;;;;19.63;68.38;101220.81;5554707;32;33773;-57
2023/09/29 07:47:17;;;;;;;11.23;8.73;;;;;;;19.63;71.27;101209.91;5560966;32;34514;-56
2023/09/29 07:50:20;;;;;;;14.40;8.63;;;;;;;19.67;68.84;101218.28;5559216;32;33593;-55
2023/09/29 07:53:22;;;;;;;15.60;8.68;;;;;;;19.80;68.05;101214.56;5560814;32;34390;-55
2023/09/29 07:56:24;;;;;;;17.95;8.48;;;;;;;19.84;64.08;101225.62;5560215;32;33364;-56
2023/09/29 07:59:26;;;;;;;14.20;9.35;;;;;;;19.86;65.64;101228.78;5556824;32;34222;-55
2023/09/29 08:02:29;;;;;;;15.65;8.63;;;;;;;19.84;64.74;101228.34;5560055;32;36361;-56
2023/09/29 08:05:31;;;;;;;12.40;8.48;;;;;;;19.88;63.96;101221.13;5564764;32;34283;-55
2023/09/29 08:08:34;;;;;;;15.25;9.60;;;;;;;19.93;66.85;101223.66;5552234;32;33781;-56
2023/09/29 08:11:36;;;;;;;16.25;9.30;;;;;;;20.04;68.50;101218.69;5566395;32;33772;-55
2023/09/29 08:14:39;;;;;;;15.52;8.88;;;;;;;20.03;65.54;101220.59;5554100;32;33660;-56
2023/09/29 08:17:41;;;;;;;14.95;9.38;;;;;;;20.02;67.94;101221.72;5560618;32;33558;-56
2023/09/29 08:20:44;;;;;;;15.18;9.27;;;;;;;20.06;64.50;101224.59;5560811;32;33653;-55
2023/09/29 08:23:46;;;;;;;14.43;9.20;;;;;;;20.09;66.03;101219.31;5555096;32;33602;-56
2023/09/29 08:26:49;;;;;;;13.10;9.95;;;;;;;20.25;66.89;101207.91;5561052;32;34351;-55
2023/09/29 08:29:51;;;;;;;19.37;9.55;;;;;;;20.35;63.85;101218.44;5557894;32;33566;-57
2023/09/29 08:32:57;;;;;;;18.62;8.93;;;;;;;20.30;64.44;101213.19;5550585;32;33128;-56
2023/09/29 08:36:18;;;;;;;16.48;9.38;;;;;;;20.34;67.18;101217.66;5564706;32;34030;-57
2023/09/29 08:39:21;;;;;;;12.60;8.32;;;;;;;20.31;63.26;101210.13;5554111;32;33689;-57
2023/09/29 08:42:36;;;;;;;29.27;9.02;;;;;;;20.34;65.02;101219.56;5556642;32;33247;-58
2023/09/29 08:45:42;;;;;;;10.88;8.20;;;;;;;20.40;63.01;101207.38;5561571;32;33240;-56
2023/09/29 08:48:48;;;;;;;15.95;8.60;;;;;;;20.49;66.59;101202.69;5560802;32;34277;-57
2023/09/29 08:51:51;;;;;;;17.23;8.98;;;;;;;20.55;67.99;101211.50;5556113;32;33970;-57
2023/09/29 08:54:55;;;;;;;19.60;9.60;;;;;;;20.63;63.76;101210.69;5556258;32;33481;-57
2023/09/29 08:58:01;;;;;;;16.08;9.85;;;;;;;20.70;63.75;101216.41;5561871;32;33580;-57
2023/09/29 09:01:04;;;;;;;19.52;9.57;;;;;;;20.78;60.54;101204.66;5563052;32;33518;-56
2023/09/29 09:04:06;;;;;;;13.62;9.27;;;;;;;20.82;60.19;101212.97;5568659;32;33942;-56
2023/09/29 09:07:09;;;;;;;15.85;8.70;;;;;;;20.87;61.79;101215.50;5564149;32;34413;-57
2023/09/29 09:10:12;;;;;;;12.88;8.98;;;;;;;20.94;60.22;101213.06;5556490;32;34252;-58
2023/09/29 09:13:34;;;;;;;15.02;9.50;;;;;;;20.95;63.54;101216.59;5560112;32;33582;-58
2023/09/29 09:16:38;;;;;;;16.45;9.13;;;;;;;21.02;61.91;101208.69;5560215;32;34904;-56
2023/09/29 09:19:50;;;;;;;14.32;8.95;;;;;;;21.03;64.83;101213.81;5563050;32;34311;-56
2023/09/29 09:23:00;;;;;;;12.65;8.40;;;;;;;21.04;67.45;101204.50;5553585;32;34267;-57
2023/09/29 09:26:17;;;;;;;15.18;9.02;;;;;;;21.03;62.18;101205.63;5559521;32;33751;-58
2023/09/29 09:29:19;;;;;;;13.75;8.95;;;;;;;21.15;61.91;101204.91;5563578;32;33767;-56
2023/09/29 09:32:28;;;;;;;16.65;8.38;;;;;;;21.11;61.34;101204.78;5563564;32;33762;-58
2023/09/29 09:35:31;;;;;;;15.45;8.27;;;;;;;21.09;61.46;101204.31;5561784;32;33637;-57
2023/09/29 09:38:33;;;;;;;10.95;8.38;;;;;;;21.19;61.68;101200.41;5565082;32;33733;-57
2023/09/29 09:41:38;;;;;;;14.43;8.48;;;;;;;21.25;60.54;101199.06;5559152;32;33760;-56
2023/09/29 09:44:42;;;;;;;15.93;9.18;;;;;;;21.29;59.50;101200.00;5566434;32;33584;-56
2023/09/29 09:47:46;;;;;;;10.82;8.65;;;;;;;21.35;59.73;101206.06;5562323;32;33813;-56
2023/09/29 09:50:52;;;;;;;15.70;9.05;;;;;;;21.49;62.72;101206.63;5557717;32;31877;-57
2023/09/29 09:53:57;;;;;;;;;;;;;;;21.53;58.53;101201.28;5555450;32;33233;-57
2023/09/29 09:57:09;;;;;;;15.30;9.02;;;;;;;21.57;62.53;101196.75;5565370;32;33459;-56
2023/09/29 10:00:12;;;;;;;12.18;8.00;;;;;;;21.62;60.06;101198.47;5554456;32;34345;-57
2023/09/29 10:03:16;;;;;;;14.68;8.63;;;;;;;21.66;60.28;101199.41;5553732;32;33613;-57
2023/09/29 10:06:21;;;;;;;14.43;8.23;;;;;;;21.61;58.39;101196.88;5565191;32;34203;-57
2023/09/29 10:09:25;;;;;;;13.60;8.48;;;;;;;21.60;58.80;101187.91;5563977;32;33797;-57
2023/09/29 10:12:28;;;;;;;17.08;8.95;;;;;;;21.73;60.85;101180.56;5564837;32;34381;-59
2023/09/29 10:15:32;;;;;;;13.23;8.02;;;;;;;21.83;58.83;101184.81;5562065;32;33324;-59
2023/09/29 10:18:35;;;;;;;12.40;8.00;;;;;;;21.81;59.17;101175.00;5561803;32;34304;-59
2023/09/29 10:21:42;;;;;;;17.58;9.07;;;;;;;21.84;61.25;101172.75;5561928;32;33730;-60
2023/09/29 10:24:44;;;;;;;12.73;8.57;;;;;;;21.93;59.55;101179.69;5556688;32;33628;-59
2023/09/29 10:27:50;;;;;;;17.48;8.52;;;;;;;21.93;61.70;101176.97;5562335;32;33728;-59
2023/09/29 10:30:52;;;;;;;13.80;8.32;;;;;;;21.99;56.20;101175.63;5563732;32;33649;-59
2023/09/29 10:33:56;;;;;;;14.95;9.32;;;;;;;22.19;54.90;101170.47;5562092;32;33238;-60
2023/09/29 10:36:59;;;;;;;9.88;7.70;;;;;;;22.16;57.80;101171.12;5561736;32;33705;-59
2023/09/29 10:40:07;;;;;;;10.82;8.05;;;;;;;22.11;56.11;101172.09;5561386;32;33743;-60
2023/09/29 10:43:10;;;;;;;12.82;8.45;;;;;;;22.09;55.27;101165.41;5561059;32;33700;-60
2023/09/29 10:46:15;;;;;;;14.18;8.88;;;;;;;22.13;57.71;101160.88;5559383;32;33766;-59
2023/09/29 10:49:17;;;;;;;12.57;8.63;;;;;;;22.31;56.09;101156.78;5561285;32;33652;-60
2023/09/29 10:52:22;;;;;;;12.02;8.48;;;;;;;22.36;55.47;101158.53;5559781;32;33693;-59
2023/09/29 10:55:25;;;;;;;15.67;8.37;;;;;;;22.34;57.66;101147.91;5564580;32;34431;-60
2023/09/29 10:58:27;;;;;;;13.55;8.38;;;;;;;22.27;54.94;101155.87;5558477;32;33493;-59
2023/09/29 11:01:34;;;;;;;10.30;7.82;;;;;;;22.32;56.95;101147.50;5560359;32;33667;-60
2023/09/29 11:04:37;;;;;;;11.80;8.15;;;;;;;22.36;54.76;101148.38;5566370;32;33767;-60
2023/09/29 11:07:48;;;;;;;13.07;7.93;;;;;;;22.44;56.14;101144.72;5565655;32;33863;-59
2023/09/29 11:10:55;;;;;;;15.50;8.15;;;;;;;22.52;54.89;101134.84;5560226;32;33728;-60
2023/09/29 11:13:58;;;;;;;14.75;8.95;;;;;;;22.52;55.30;101127.44;5564302;32;33481;-60
2023/09/29 11:17:01;;;;;;;18.02;8.43;;;;;;;22.58;54.41;101136.19;5568096;32;33621;-59
2023/09/29 11:20:16;;;;;;;12.93;8.05;;;;;;;22.57;53.91;101126.41;5559965;32;32213;-58
2023/09/29 11:23:20;;;;;;;13.23;7.37;;;;;;;22.49;54.13;101121.87;5562221;32;34353;-57
2023/09/29 11:26:24;;;;;;;12.85;7.30;;;;;;;22.59;56.87;101112.41;5568301;32;34448;-57
2023/09/29 11:29:30;;;;;;;12.50;7.50;;;;;;;22.63;51.53;101116.03;5559328;32;33770;-58
2023/09/29 11:32:33;;;;;;;16.70;7.70;;;;;;;22.64;50.73;101112.16;5555531;32;33756;-58
2023/09/29 11:35:36;;;;;;;12.60;7.10;;;;;;;22.60;50.31;101114.78;5563044;32;34205;-55
2023/09/29 11:38:38;;;;;;;12.55;7.60;;;;;;;22.60;50.30;101106.59;5564018;32;33696;-54
2023/09/29 11:41:41;;;;;;;10.55;7.40;;;;;;;22.64;50.49;101098.50;5551926;32;33901;-55
2023/09/29 11:44:44;;;;;;;11.68;7.45;;;;;;;22.64;48.69;101096.56;5564954;32;34372;-56
2023/09/29 11:47:46;;;;;;;17.00;8.00;;;;;;;22.74;50.40;101098.81;5562547;32;33584;-55
2023/09/29 11:50:49;;;;;;;11.12;7.35;;;;;;;22.78;49.51;101095.38;5565971;32;34230;-54
2023/09/29 11:53:51;;;;;;;13.23;7.50;;;;;;;22.85;49.49;101087.41;5566082;32;33576;-55
2023/09/29 11:56:54;;;;;;;13.20;7.10;;;;;;;22.97;49.44;101084.66;5564416;32;33585;-55
2023/09/29 11:59:56;;;;;;;11.65;7.12;;;;;;;23.05;50.90;101085.69;5565801;32;33206;-56
2023/09/29 12:03:00;;;;;;;10.40;7.00;;;;;;;23.08;48.66;101084.94;5563433;32;33354;-56
2023/09/29 12:06:03;;;;;;;12.02;7.12;;;;;;;23.03;48.96;101083.28;5560537;32;33584;-55
2023/09/29 12:09:05;;;;;;;14.38;6.65;;;;;;;23.00;47.81;101080.44;5552907;32;33968;-55
2023/09/29 12:12:08;;;;;;;18.02;7.45;;;;;;;23.07;47.44;101072.44;5546376;32;33120;-55
2023/09/29 12:15:11;;;;;;;10.60;6.55;;;;;;;23.21;46.99;101075.56;5555323;32;34404;-55
2023/09/29 12:18:14;;;;;;;13.30;6.93;;;;;;;23.11;45.43;101076.88;5547921;32;34363;-55
2023/09/29 12:21:17;;;;;;;13.43;7.05;;;;;;;23.05;45.67;101072.00;5548397;32;34317;-56
2023/09/29 12:24:19;;;;;;;10.45;6.97;;;;;;;23.16;45.28;101068.41;5548111;32;33630;-55
2023/09/29 12:27:21;;;;;;;10.93;6.78;;;;;;;23.19;46.53;101072.38;5547667;32;33621;-54
2023/09/29 12:30:25;;;;;;;10.68;7.05;;;;;;;23.15;45.85;101060.56;5554923;32;33772;-57
2023/09/29 12:33:27;;;;;;;16.90;7.87;;;;;;;23.24;45.89;101054.91;5569423;32;33775;-57
2023/09/29 12:36:30;;;;;;;17.73;6.80;;;;;;;23.33;46.38;101044.63;5569990;32;33591;-57
2023/09/29 12:39:32;;;;;;;8.55;6.20;;;;;;;23.36;48.33;101044.72;5570057;32;33627;-57
2023/09/29 12:42:35;;;;;;;12.02;6.22;;;;;;;23.40;43.57;101047.53;5570117;32;33683;-57
2023/09/29 12:45:38;;;;;;;11.05;6.00;;;;;;;23.24;42.83;101041.25;5569860;32;34409;-57
2023/09/29 12:48:40;;;;;;;9.93;6.07;;;;;;;23.23;42.49;101040.44;5569848;32;33646;-57
2023/09/29 12:51:43;;;;;;;9.40;6.07;;;;;;;23.31;41.38;101038.69;5569858;32;34245;-57
2023/09/29 12:55:02;;;;;;;13.18;5.97;;;;;;;23.38;43.05;101028.75;5567727;32;33769;-57
2023/09/29 12:58:06;;;;;;;10.88;5.65;;;;;;;23.34;42.23;101029.78;5569179;32;34758;-57
2023/09/29 13:01:09;;;;;;;12.10;5.80;;;;;;;23.42;42.53;101026.09;5569670;32;33774;-57
2023/09/29 13:04:11;;;;;;;15.48;6.07;;;;;;;23.39;41.12;101027.59;5569876;32;34468;-57
2023/09/29 13:07:14;;;;;;;12.35;5.78;;;;;;;23.37;41.38;101027.16;5569600;32;33725;-57
2023/09/29 13:10:19;;;;;;;13.07;5.68;;;;;;;23.46;42.98;101024.25;5569392;32;33345;-57
2023/09/29 13:13:22;;;;;;;9.97;5.77;;;;;;;23.37;41.03;101018.16;5569728;32;33801;-57
2023/09/29 13:16:25;;;;;;;10.23;5.93;;;;;;;23.32;42.13;101015.69;5568996;32;33882;-57
2023/09/29 13:19:27;;;;;;;9.23;6.05;;;;;;;23.28;41.06;101015.59;5569409;32;34256;-58
2023/09/29 13:22:29;;;;;;;10.50;5.85;;;;;;;23.26;41.47;101012.41;5569481;32;33731;-57
2023/09/29 13:25:32;;;;;;;9.63;6.28;;;;;;;23.35;41.88;101017.72;5568799;32;33768;-57
2023/09/29 13:28:34;;;;;;;12.15;6.82;;;;;;;23.43;39.96;101009.31;5568059;32;33692;-57
2023/09/29 13:31:37;;;;;;;22.35;6.65;;;;;;;23.65;40.31;101012.63;5569628;32;31660;-58
2023/09/29 13:34:39;;;;;;;11.32;6.50;;;;;;;23.58;40.90;101012.44;5569658;32;33644;-57
2023/09/29 13:37:42;;;;;;;12.77;6.70;;;;;;;23.57;42.45;101008.88;5569430;32;34418;-57
2023/09/29 13:40:49;;;;;;;17.95;6.53;;;;;;;23.50;41.61;101000.50;5568936;32;33732;-57
2023/09/29 13:43:51;;;;;;;9.07;5.87;;;;;;;23.56;43.08;101009.25;5569110;32;33426;-57
2023/09/29 13:46:54;;;;;;;15.45;6.00;;;;;;;23.51;39.38;101002.13;5569046;32;34419;-57
2023/09/29 13:50:09;;;;;;;10.07;5.82;;;;;;;23.48;41.08;101000.06;5569756;32;34312;-57
2023/09/29 13:53:12;;;;;;;10.55;6.10;;;;;;;23.40;42.08;101004.56;5569475;32;34397;-57
2023/09/29 13:56:14;;;;;;;15.90;6.05;;;;;;;23.38;42.19;101000.59;5569684;32;34435;-57
2023/09/29 13:59:16;;;;;;;13.27;6.37;;;;;;;23.37;43.43;100999.78;5569368;32;33662;-57
2023/09/29 14:02:20;;;;;;;11.10;6.03;;;;;;;23.40;43.16;100996.34;5569076;32;33400;-57
2023/09/29 14:05:22;;;;;;;12.52;6.75;;;;;;;23.37;43.31;100991.56;5563686;32;33672;-57
2023/09/29 14:08:25;;;;;;;10.50;6.18;;;;;;;23.48;44.57;100994.59;5564583;32;33353;-57
2023/09/29 14:11:27;;;;;;;11.77;6.10;;;;;;;23.45;42.68;100990.63;5568430;32;33534;-57
2023/09/29 14:14:29;;;;;;;9.98;5.85;;;;;;;23.50;42.78;100980.56;5567300;32;33593;-57
2023/09/29 14:17:32;;;;;;;10.15;6.15;;;;;;;23.46;41.64;100983.22;5562235;32;34157;-57
2023/09/29 14:20:35;;;;;;;17.70;5.95;;;;;;;23.40;42.12;100977.19;5558544;32;33862;-58
2023/09/29 14:23:39;;;;;;;16.60;6.25;;;;;;;23.38;43.68;100973.25;5567294;32;33718;-57
2023/09/29 14:26:41;;;;;;;12.63;6.72;;;;;;;23.45;43.47;100976.94;5567498;32;33950;-58
2023/09/29 14:29:44;;;;;;;12.27;6.75;;;;;;;23.51;42.09;100968.47;5569062;32;33608;-57
2023/09/29 14:32:46;;;;;;;12.30;6.65;;;;;;;23.52;42.77;100970.06;5569431;32;34440;-57
2023/09/29 14:35:49;;;;;;;14.38;7.15;;;;;;;23.51;43.27;100962.97;5569203;32;33743;-57
2023/09/29 14:38:52;;;;;;;14.18;6.70;;;;;;;23.43;42.10;100953.81;5569205;32;33631;-57
2023/09/29 14:41:55;;;;;;;12.77;6.18;;;;;;;23.47;43.23;100954.69;5569034;32;33716;-57
2023/09/29 14:44:57;;;;;;;8.23;5.87;;;;;;;23.36;42.08;100948.97;5568915;32;33793;-57
2023/09/29 14:48:03;;;;;;;13.88;6.00;;;;;;;23.29;42.46;100948.00;5569425;32;33630;-57
2023/09/29 14:51:06;;;;;;;12.75;6.28;;;;;;;23.25;42.59;100955.31;5569004;32;33983;-57
2023/09/29 14:54:08;;;;;;;10.52;6.45;;;;;;;23.20;43.08;100951.69;5567293;32;33884;-57
2023/09/29 14:57:12;;;;;;;19.15;6.28;;;;;;;23.18;44.53;100943.06;5569194;32;33663;-57
2023/09/29 15:00:15;;;;;;;9.90;6.45;;;;;;;23.14;45.54;100953.09;5569192;32;34452;-55
2023/09/29 15:03:18;;;;;;;16.23;6.25;;;;;;;23.11;43.65;100950.25;5568883;32;33671;-55
2023/09/29 15:06:20;;;;;;;9.75;6.35;;;;;;;23.07;45.76;100941.97;5568371;32;33670;-55
2023/09/29 15:09:23;;;;;;;12.30;6.12;;;;;;;23.07;45.60;100941.19;5569114;32;33633;-54
2023/09/29 15:12:25;;;;;;;9.73;6.65;;;;;;;23.03;44.98;100948.50;5569001;32;33699;-54
2023/09/29 15:15:28;;;;;;;11.40;6.47;;;;;;;23.00;46.28;100941.78;5568962;32;34257;-58
2023/09/29 15:18:31;;;;;;;12.80;5.93;;;;;;;22.97;47.02;100943.28;5568911;32;33594;-55
2023/09/29 15:21:35;;;;;;;10.57;5.95;;;;;;;22.97;47.30;100943.28;5569198;32;34484;-56
2023/09/29 15:24:37;;;;;;;17.70;6.75;;;;;;;22.92;46.12;100940.78;5569094;32;33662;-55
2023/09/29 15:27:40;;;;;;;15.15;6.37;;;;;;;22.89;51.15;100941.47;5568783;32;34316;-55
2023/09/29 15:30:45;;;;;;;8.10;6.37;;;;;;;22.86;48.21;100939.44;5568893;32;34285;-56
2023/09/29 15:33:47;;;;;;;8.18;6.10;;;;;;;22.80;49.15;100943.56;5568774;32;34408;-55
2023/09/29 15:36:51;;;;;;;11.02;5.90;;;;;;;22.75;52.01;100932.91;5568937;32;34447;-56
